Time;durP1;ratioP1;P1;durP2;ratioP2;P2;SDS_P1;SDS_P2;PMS_P1;PMS_P2;Temp;Humidity;BMP_temperature;BMP_pressure;BME280_temperature;BME280_humidity;BME280_pressure;Samples;Min_cycle;Max_cycle;Signal;HPM_P1;HPM_P2
2021/07/20 07:53:29;;;;;;;25.50;14.43;;;;;;;18.97;89.27;97793.06;1865476;76;22074;-64
2021/07/20 07:55:56;;;;;;;20.17;13.00;;;;;;;18.83;89.15;97788.06;1823446;77;20854;-60
2021/07/20 07:58:28;;;;;;;18.85;12.23;;;;;;;18.79;89.25;97783.13;1822847;78;20983;-66
2021/07/20 08:00:58;;;;;;;16.00;11.83;;;;;;;18.81;89.48;97780.84;1824409;78;21009;-61
2021/07/20 08:03:32;;;;;;;19.48;11.95;;;;;;;18.81;89.07;97778.69;1820313;77;20976;-60
2021/07/20 08:05:59;;;;;;;19.12;10.80;;;;;;;18.83;89.36;97770.42;1825215;78;21001;-66
2021/07/20 08:08:26;;;;;;;19.92;11.80;;;;;;;18.99;89.60;97774.49;1798553;78;20990;-62
2021/07/20 08:10:53;;;;;;;18.73;11.05;;;;;;;19.09;89.32;97767.98;1826207;78;21104;-65
2021/07/20 08:13:20;;;;;;;17.12;10.95;;;;;;;19.19;89.04;97766.67;1825774;78;21623;-68
2021/07/20 08:15:50;;;;;;;19.32;11.12;;;;;;;19.27;88.25;97762.17;1819867;78;21012;-63
2021/07/20 08:18:20;;;;;;;22.32;10.93;;;;;;;19.31;87.64;97761.72;1800900;78;21337;-67
2021/07/20 08:20:47;;;;;;;17.27;10.98;;;;;;;19.37;87.39;97763.04;1820147;77;20975;-66
2021/07/20 08:23:15;;;;;;;18.05;10.20;;;;;;;19.47;87.04;97761.15;1826922;78;21792;-64
2021/07/20 08:25:43;;;;;;;19.60;10.58;;;;;;;19.58;86.70;97760.81;1805780;78;21018;-61
2021/07/20 08:28:16;;;;;;;18.10;10.68;;;;;;;19.67;85.86;97761.40;1824288;77;21006;-59
2021/07/20 08:30:46;;;;;;;14.65;11.05;;;;;;;19.74;85.11;97768.34;1824160;78;21047;-63
2021/07/20 08:33:20;;;;;;;15.05;9.90;;;;;;;19.81;84.04;97763.06;1827007;78;20923;-63
2021/07/20 08:35:48;;;;;;;20.30;10.50;;;;;;;19.86;83.99;97775.02;1817131;77;21362;-65
2021/07/20 08:38:14;;;;;;;19.45;10.20;;;;;;;19.92;83.64;97779.05;1828049;77;20951;-65
2021/07/20 08:41:08;;;;;;;17.32;10.10;;;;;;;20.01;83.74;97782.35;1826699;78;20912;-62
2021/07/20 08:44:15;;;;;;;16.05;10.23;;;;;;;20.10;83.37;97773.41;1833624;77;20900;-63
2021/07/20 08:47:13;;;;;;;16.82;11.00;;;;;;;20.24;83.02;97771.02;1827689;78;20916;-63
2021/07/20 08:50:26;;;;;;;17.57;10.75;;;;;;;20.35;82.21;97768.48;1799067;77;21078;-62
2021/07/20 08:53:07;;;;;;;19.48;10.70;;;;;;;20.49;81.88;97772.84;1808744;77;20923;-61
2021/07/20 08:55:41;;;;;;;16.42;9.40;;;;;;;20.66;81.01;97771.61;1806584;78;20944;-64
2021/07/20 08:58:34;;;;;;;21.97;10.28;;;;;;;20.77;80.27;97772.04;1806215;79;20946;-64
2021/07/20 09:01:26;;;;;;;17.40;9.35;;;;;;;20.83;79.93;97762.98;1799007;79;20961;-65
2021/07/20 09:04:13;;;;;;;21.82;9.85;;;;;;;20.86;78.92;97767.71;1745263;81;21076;-62
2021/07/20 09:06:51;;;;;;;14.43;8.98;;;;;;;20.88;78.88;97766.20;1796116;79;20956;-62
2021/07/20 09:09:27;;;;;;;15.75;9.40;;;;;;;20.88;78.73;97764.84;1757144;80;20987;-67
2021/07/20 09:11:59;;;;;;;14.05;9.48;;;;;;;20.85;78.72;97768.84;1752830;80;21106;-62
2021/07/20 09:14:46;;;;;;;13.58;8.75;;;;;;;20.77;79.01;97759.00;1786960;79;21873;-67
2021/07/20 09:17:33;;;;;;;13.65;9.10;;;;;;;20.71;79.01;97763.15;1773605;81;21006;-67
2021/07/20 09:20:13;;;;;;;15.03;8.60;;;;;;;20.68;78.98;97762.53;1793764;79;20992;-62
2021/07/20 09:22:51;;;;;;;17.32;9.73;;;;;;;20.70;79.25;97762.39;1805273;79;21298;-66
2021/07/20 09:25:46;;;;;;;12.58;9.38;;;;;;;20.74;78.89;97759.14;1771935;80;20865;-64
2021/07/20 09:28:17;;;;;;;;;;;;;;;20.77;78.29;97764.44;1776160;79;21523;-64
2021/07/20 09:30:47;;;;;;;12.50;8.23;;;;;;;20.81;78.07;97758.48;1785682;78;21055;-64
2021/07/20 09:33:46;;;;;;;11.83;8.53;;;;;;;20.87;77.99;97755.09;1788235;79;20980;-65
2021/07/20 09:36:35;;;;;;;13.08;7.83;;;;;;;21.00;77.92;97759.79;1773786;81;20917;-64
2021/07/20 09:39:29;;;;;;;12.70;8.08;;;;;;;21.14;77.46;97762.78;1799815;79;20937;-62
2021/07/20 09:42:01;;;;;;;17.55;8.23;;;;;;;21.17;76.70;97759.34;1805463;79;21436;-59
2021/07/20 09:44:50;;;;;;;10.88;7.85;;;;;;;21.20;75.51;97759.19;1752905;81;21124;-64
2021/07/20 09:47:58;;;;;;;11.12;7.58;;;;;;;21.16;75.54;97755.59;1805538;79;20878;-65
2021/07/20 09:50:25;;;;;;;14.47;7.37;;;;;;;21.10;74.97;97756.50;1804442;79;20972;-59
2021/07/20 09:53:10;;;;;;;11.08;7.20;;;;;;;21.02;74.69;97755.55;1761381;80;20931;-64
2021/07/20 09:55:49;;;;;;;16.00;7.75;;;;;;;21.01;75.13;97758.63;1746351;81;20887;-60
2021/07/20 09:58:49;;;;;;;11.12;7.70;;;;;;;20.96;74.89;97750.78;1746523;82;21355;-65
2021/07/20 10:01:33;;;;;;;15.78;7.45;;;;;;;20.89;74.96;97748.70;1760165;79;20872;-66
2021/07/20 10:04:18;;;;;;;12.35;8.15;;;;;;;20.83;75.08;97742.56;1779832;79;20936;-67
2021/07/20 10:06:55;;;;;;;11.45;7.50;;;;;;;20.79;75.17;97739.01;1794836;79;20928;-60
2021/07/20 10:09:50;;;;;;;12.33;7.42;;;;;;;20.78;74.79;97744.22;1808569;79;20923;-62
2021/07/20 10:12:47;;;;;;;12.95;7.65;;;;;;;20.74;75.28;97740.09;1801504;79;21123;-68
2021/07/20 10:15:16;;;;;;;13.30;7.70;;;;;;;20.69;75.82;97728.14;1759546;80;21536;-66
2021/07/20 10:18:02;;;;;;;12.78;7.67;;;;;;;20.68;75.56;97738.05;1768306;80;21510;-66
2021/07/20 10:20:33;;;;;;;10.72;8.40;;;;;;;20.61;75.57;97733.84;1828352;77;21034;-64
2021/07/20 10:23:13;;;;;;;12.55;7.67;;;;;;;20.53;75.86;97738.92;1817645;78;20893;-64
2021/07/20 10:25:47;;;;;;;14.25;8.33;;;;;;;20.45;76.10;97740.71;1815249;78;21054;-64
2021/07/20 10:28:25;;;;;;;13.47;8.27;;;;;;;20.37;76.52;97735.70;1831952;78;20958;-64
2021/07/20 10:31:15;;;;;;;11.75;7.92;;;;;;;20.32;76.85;97738.75;1829086;78;20963;-64
2021/07/20 10:33:59;;;;;;;16.00;8.38;;;;;;;20.26;76.84;97738.02;1804639;78;21048;-60
2021/07/20 10:36:30;;;;;;;17.42;8.30;;;;;;;20.19;77.40;97741.36;1794419;79;20929;-62
2021/07/20 10:39:13;;;;;;;20.68;8.35;;;;;;;20.13;77.68;97740.64;1778940;79;22619;-65
2021/07/20 10:41:51;;;;;;;19.52;8.48;;;;;;;20.07;78.18;97738.77;1839578;77;20986;-64
2021/07/20 10:44:31;;;;;;;20.60;8.63;;;;;;;20.01;78.74;97736.14;1780598;79;20919;-66
2021/07/20 10:46:59;;;;;;;22.22;8.83;;;;;;;19.98;79.42;97730.05;1807980;79;20856;-68
2021/07/20 10:49:47;;;;;;;23.27;9.03;;;;;;;19.96;79.89;97725.55;1809154;79;20911;-62
2021/07/20 10:52:41;;;;;;;17.65;8.20;;;;;;;20.03;80.11;97727.61;1809986;79;21002;-66
2021/07/20 10:55:21;;;;;;;14.18;8.28;;;;;;;20.02;80.34;97724.10;1823663;78;20997;-67
2021/07/20 10:58:19;;;;;;;11.83;7.75;;;;;;;20.04;80.01;97732.72;1826561;77;20923;-66
2021/07/20 11:01:07;;;;;;;13.62;7.75;;;;;;;20.04;79.94;97732.72;1774613;78;20962;-64
2021/07/20 11:03:59;;;;;;;12.70;7.78;;;;;;;20.04;79.75;97728.64;1806550;79;21575;-66
2021/07/20 11:06:27;;;;;;;11.35;7.22;;;;;;;20.04;79.91;97731.36;1768918;80;21011;-67
2021/07/20 11:08:57;;;;;;;11.45;7.47;;;;;;;20.05;80.24;97720.68;1785336;80;21568;-66
2021/07/20 11:11:30;;;;;;;16.02;8.43;;;;;;;20.04;80.17;97720.48;1784228;80;21075;-62
2021/07/20 11:13:59;;;;;;;14.53;7.87;;;;;;;20.01;80.32;97723.91;1718480;82;21124;-63
2021/07/20 11:16:25;;;;;;;15.10;8.53;;;;;;;19.97;80.56;97718.98;1823518;78;21417;-63
2021/07/20 11:18:53;;;;;;;16.02;8.33;;;;;;;19.96;80.71;97717.95;1803488;78;21114;-68
2021/07/20 11:21:24;;;;;;;17.07;8.33;;;;;;;19.96;80.99;97715.24;1828227;77;21039;-63
2021/07/20 11:23:51;;;;;;;13.48;8.45;;;;;;;19.96;81.23;97714.67;1830456;78;20924;-68
2021/07/20 11:26:19;;;;;;;11.45;8.05;;;;;;;20.00;81.68;97710.09;1820544;77;21002;-64
2021/07/20 11:28:46;;;;;;;13.35;7.87;;;;;;;20.05;81.68;97709.80;1819526;78;20927;-65
2021/07/20 11:31:17;;;;;;;13.90;8.25;;;;;;;20.08;81.43;97705.59;1824650;77;21512;-67
2021/07/20 11:33:50;;;;;;;11.08;7.85;;;;;;;20.11;81.07;97700.80;1824385;78;21403;-66
2021/07/20 11:36:22;;;;;;;11.70;7.62;;;;;;;20.11;81.11;97697.52;1827289;77;20914;-66
2021/07/20 11:38:53;;;;;;;11.88;7.72;;;;;;;20.11;81.18;97692.08;1838553;78;20847;-65
2021/07/20 11:41:34;;;;;;;16.48;7.47;;;;;;;20.13;81.02;97695.22;1838782;78;20882;-64
2021/07/20 11:44:15;;;;;;;13.18;7.40;;;;;;;20.17;81.10;97700.14;1838499;78;21173;-65
2021/07/20 11:46:51;;;;;;;12.30;6.78;;;;;;;20.20;81.14;97694.00;1838175;78;21595;-64
2021/07/20 11:49:53;;;;;;;9.48;7.15;;;;;;;20.22;81.07;97697.73;1822358;78;20872;-64
2021/07/20 11:52:28;;;;;;;10.23;7.50;;;;;;;20.24;81.28;97694.88;1804935;78;20896;-59
2021/07/20 11:55:10;;;;;;;;;;;;;;;20.26;81.22;97695.30;1818062;79;20991;-65
2021/07/20 11:58:03;;;;;;;10.32;6.80;;;;;;;20.26;81.21;97699.37;1815755;79;21113;-68
2021/07/20 12:01:08;;;;;;;10.93;6.62;;;;;;;20.23;80.78;97691.92;1776923;80;20940;-67
2021/07/20 12:04:06;;;;;;;9.98;7.05;;;;;;;20.22;80.43;97697.17;1778819;79;21026;-65
2021/07/20 12:07:03;;;;;;;15.15;6.92;;;;;;;20.18;79.72;97686.77;1773265;80;20987;-61
2021/07/20 12:10:04;;;;;;;18.05;7.15;;;;;;;20.16;79.42;97688.28;1813442;78;20856;-63
2021/07/20 12:12:57;;;;;;;10.18;6.83;;;;;;;20.13;79.61;97682.19;1814062;79;21188;-62
2021/07/20 12:15:26;;;;;;;14.53;7.30;;;;;;;20.12;79.49;97680.03;1819142;79;20994;-67
2021/07/20 12:17:53;;;;;;;9.30;7.05;;;;;;;20.11;79.04;97683.13;1819637;79;20868;-63
2021/07/20 12:20:23;;;;;;;14.07;6.87;;;;;;;20.11;78.71;97681.77;1813722;79;20943;-62
2021/07/20 12:22:53;;;;;;;13.55;7.25;;;;;;;20.10;78.57;97685.05;1809065;79;20931;-63
2021/07/20 12:25:21;;;;;;;14.18;7.65;;;;;;;20.07;78.39;97681.69;1811624;78;21109;-65
2021/07/20 12:27:49;;;;;;;14.68;7.05;;;;;;;20.06;78.56;97682.84;1822857;77;20904;-64
2021/07/20 12:30:20;;;;;;;11.97;7.05;;;;;;;20.05;78.54;97674.47;1815634;77;20837;-62
2021/07/20 12:32:47;;;;;;;10.60;7.20;;;;;;;20.07;78.84;97676.25;1815965;78;20869;-61
2021/07/20 12:35:19;;;;;;;12.18;7.03;;;;;;;20.10;78.60;97674.74;1815838;79;21505;-66
2021/07/20 12:38:08;;;;;;;15.15;7.12;;;;;;;20.12;78.80;97659.65;1807888;78;21658;-69
2021/07/20 12:40:37;;;;;;;11.95;7.42;;;;;;;20.17;78.79;97672.95;1814343;78;20908;-65
2021/07/20 12:43:13;;;;;;;10.60;6.97;;;;;;;20.19;78.58;97669.86;1809684;78;21508;-66
2021/07/20 12:45:44;;;;;;;13.32;7.05;;;;;;;20.19;78.73;97667.94;1840692;78;21390;-63
2021/07/20 12:48:25;;;;;;;9.25;6.55;;;;;;;20.24;78.81;97670.40;1825681;78;21477;-67
2021/07/20 12:50:57;;;;;;;13.45;7.30;;;;;;;20.29;79.18;97664.67;1817467;78;21072;-65
2021/07/20 12:53:25;;;;;;;11.83;7.25;;;;;;;20.34;78.90;97667.66;1822113;77;20903;-66
2021/07/20 12:55:52;;;;;;;11.15;6.62;;;;;;;20.37;79.09;97667.70;1826333;78;21038;-63
2021/07/20 12:58:20;;;;;;;13.65;6.80;;;;;;;20.42;79.24;97663.34;1788212;80;21434;-67
2021/07/20 13:00:48;;;;;;;12.85;7.17;;;;;;;20.48;79.08;97667.13;1787246;80;20852;-65
2021/07/20 13:03:14;;;;;;;14.70;6.90;;;;;;;20.52;78.85;97667.96;1788346;80;21208;-67
2021/07/20 13:05:42;;;;;;;10.98;6.83;;;;;;;20.57;79.25;97671.74;1786509;80;20954;-67
2021/07/20 13:08:12;;;;;;;11.22;6.85;;;;;;;20.61;79.02;97667.17;1788831;79;20882;-67
2021/07/20 13:10:39;;;;;;;12.40;7.08;;;;;;;20.66;78.87;97666.84;1770800;80;20978;-66
2021/07/20 13:13:06;;;;;;;11.10;6.83;;;;;;;20.71;78.84;97662.46;1789588;79;21096;-66
2021/07/20 13:15:33;;;;;;;10.85;7.08;;;;;;;20.74;77.96;97662.53;1757430;81;21135;-66
2021/07/20 13:18:01;;;;;;;11.63;7.08;;;;;;;20.77;77.53;97654.22;1758031;80;20966;-63
2021/07/20 13:20:32;;;;;;;14.30;7.17;;;;;;;20.77;77.41;97659.66;1758964;81;21029;-68
2021/07/20 13:22:59;;;;;;;13.93;7.50;;;;;;;20.77;77.53;97667.27;1772579;78;21081;-64
2021/07/20 13:25:26;;;;;;;14.07;6.60;;;;;;;20.75;77.07;97663.33;1775781;80;21124;-64
